Albuquerque, NM

6:54 PM MDT on April 19, 2015 (GMT -0600)
UNM Area West | | Change Station
CLOSE
Current Station
Personal Weather Station
Location: Albuquerque, NM
Elevation: 5133 ft
Nearby Weather Stations

Elev 5133 ft 35.09 °N, 106.63 °W | Updated 4 minutes ago

Mostly Cloudy
Mostly Cloudy
65.8 °F
Feels Like 65.8 °F
N
2.0
Wind Variable Wind from SSE
Gusts 8.0 mph

Today
High -- | Low -- °F
--% Chance of Precip.
Yesterday
High -- | Low -- °F
Precip. -- in
6:29 AM 7:42 PM
New Moon, 2% visible
Pressure 29.82 in
Visibility 10.0 miles
Clouds Scattered Clouds 11000 ft
Mostly Cloudy 15000 ft
Dew Point 27 °F
Humidity 23%
Rainfall 0.00 in
Snow Depth Not available.
UV 0 out of 12
Pollen 9.60 out of 12
Air Quality Not available.
Flu Activity Local Activity
METAR KABQ 200052Z 17010KT 10SM SCT110 BKN150 17/M04 A2995 RMK AO2 SLP097 VIRGA E-SE AND S-SW T01721039

More Conditions Fewer Conditions

Pressure 29.82 in
Visibility 10.0 miles
Clouds Scattered Clouds 11000 ft
Mostly Cloudy 15000 ft
Dew Point 27 °F
Humidity 23%
Rainfall 0.00 in
Snow Depth Not available.
UV 0 out of 12
Pollen 9.60 out of 12
Air Quality Not available.
Flu Activity Local Activity
METAR KABQ 200052Z 17010KT 10SM SCT110 BKN150 17/M04 A2995 RMK AO2 SLP097 VIRGA E-SE AND S-SW T01721039

More Conditions Fewer Conditions

Nowcast | as of 5:49 PM MDT on April 19, 2015

Through 8 PM MDT...isolated showers will continue to move east from the western mountains across adjacent Highlands and into the Rio Grande Valley between Taos...Santa Fe...Albuquerque and Socorro. Expect only light rain with amounts generally a trace to a couple hundredths of an inch. A rumble of thunder or two can not be ruled out. In addition...winds may gust to near 40 mph in the vicinity of this activity. Look for showers to gradually diminish after sunset.

×

10-Day Weather Forecast

Almanac

Astronomy

Apr. 19, 2015 Rise Set
Actual Time
Civil Twilight
Nautical Twilight
Astronomical Twilight
Moon
Length of Visible Light
Length of Day
Tomorrow will be .
, % of the Moon is Illuminated

Today's Extremes

State Highs State Lows

Community

WunderPhotos

Upload Photos

1,815,065 photos uploaded!

WunderBlogs® & News

Nearby

Air Quality

  Air Quality AQ Index Pollutant
Not available.

Snow Depth

Station Depth Elevation

Earthquake Activity

City Distance Mag. Time & Date
Minimum magnitude displayed is 2.5.

Coastal Water Temperatures

Place Temperature

Stations

Nearby Weather Stations

Station Location Temp. Windchill Dew Point Humidity Wind Precip. Elev Updated Type